IDBO2: Little River, Idabel, OK

                                SHEF ID:       IDBO2     Little River blw Lukfata Creek
STATION TYPE: Stream Gauge
Regulating: Stage = 27.50, Flow = 12738

PRECIP STAGE RIV-FLOW BAT-LOAD
in ft cfs volt
Ccp-Rev Ccp-Rev Ccp-Rev Ccp-Rev
(America/Chicago)
05/01 00:00 0.00 10.73 2453 13.64
05/01 01:00 0.00 10.68 2424 13.62
05/01 02:00 0.00 10.62 2390 13.59
05/01 03:00 0.00 10.56 2356 13.55
05/01 04:00 0.00 10.52 2334 13.54
05/01 05:00 0.00 10.46 2300 13.51
05/01 06:00 0.00 10.41 2272 13.49
05/01 07:00 0.00 10.37 2249 13.47
05/01 08:00 0.00 10.33 2227 13.47
05/01 09:00 0.00 10.29 2204 13.54
05/01 10:00 0.00 10.25 2182 13.65
05/01 11:00 0.00 10.21 2160 14.08
05/01 12:00 0.00 10.17 2138 14.03
05/01 13:00 0.00 10.13 2115 13.98
05/01 14:00 0.00 10.10 2099 13.95
05/01 15:00 0.00 10.08 2088 13.93
05/01 16:00 0.00 10.04 2066 13.90
05/01 17:00 0.00 10.01 2049 13.88
05/01 18:00 0.00 9.97 2027 13.86
05/01 19:00 0.00 9.93 2005 13.83
05/01 20:00 0.00 9.89 1983 13.82
05/01 21:00 0.00 9.85 1962 13.78
05/01 22:00 0.00 9.81 1940 13.74
05/01 23:00 0.00 9.76 1913 13.70
Data processed at Sat 02May2026 04:32 GMT

NOTICE: If you are parsing this page

Please convert to using our Data API. Starting early 2026 we will be migrating to: https://water.usace.army.mil with modern pages rendered in JavaScript. When this migration completes you will no longer be able to scrape this page! CWMSDataAPI (CDA)

Timeseries IDs (TSIDs)

TSIDs used from left to right in the data table
IDAB.Precip-Inc.Total.1Hour.1Hour.Ccp-Rev
IDAB.Stage.Inst.1Hour.0.Ccp-Rev
IDAB.Flow.Inst.1Hour.0.Ccp-Rev
IDAB.Volt-Battery Load.Inst.1Hour.0.Ccp-Rev

                            

All information presented herein is the property of the government of the United States of America and may be revised or deleted at any time without prior notice. Dissemination of this information without the expressed written consent of the Public Affairs Office, Tulsa District U.S. Army Corps of Engineers is strictly prohibited. These data are gathered electronically and, as presented, have NOT undergone any form of quality control. These data are NOT guaranteed to be valid or correct.